sensor_id;sensor_type;location;lat;lon;timestamp;P1;durP1;ratioP1;P2;durP2;ratioP2
3767;SDS011;1899;49.966;7.106;2023-08-20T00:01:55;12.57;;;7.47;;
3767;SDS011;1899;49.966;7.106;2023-08-20T00:04:22;8.37;;;6.73;;
3767;SDS011;1899;49.966;7.106;2023-08-20T00:06:48;7.43;;;6.73;;
3767;SDS011;1899;49.966;7.106;2023-08-20T00:09:13;7.83;;;6.90;;
3767;SDS011;1899;49.966;7.106;2023-08-20T00:11:39;12.40;;;6.77;;
3767;SDS011;1899;49.966;7.106;2023-08-20T00:14:04;8.67;;;7.77;;
3767;SDS011;1899;49.966;7.106;2023-08-20T00:16:29;7.23;;;6.13;;
3767;SDS011;1899;49.966;7.106;2023-08-20T00:18:55;7.47;;;6.77;;
3767;SDS011;1899;49.966;7.106;2023-08-20T00:21:20;7.57;;;6.37;;
3767;SDS011;1899;49.966;7.106;2023-08-20T00:23:46;7.03;;;6.33;;
3767;SDS011;1899;49.966;7.106;2023-08-20T00:26:11;8.50;;;6.47;;
3767;SDS011;1899;49.966;7.106;2023-08-20T00:28:37;7.90;;;6.20;;
3767;SDS011;1899;49.966;7.106;2023-08-20T00:31:03;11.97;;;8.10;;
3767;SDS011;1899;49.966;7.106;2023-08-20T00:33:29;12.70;;;8.57;;
3767;SDS011;1899;49.966;7.106;2023-08-20T00:35:54;11.20;;;6.80;;
3767;SDS011;1899;49.966;7.106;2023-08-20T00:38:19;10.03;;;6.73;;
3767;SDS011;1899;49.966;7.106;2023-08-20T00:40:44;7.17;;;6.30;;
3767;SDS011;1899;49.966;7.106;2023-08-20T00:43:10;7.90;;;6.87;;
3767;SDS011;1899;49.966;7.106;2023-08-20T00:45:35;7.77;;;6.37;;
3767;SDS011;1899;49.966;7.106;2023-08-20T00:48:01;11.70;;;6.90;;
3767;SDS011;1899;49.966;7.106;2023-08-20T00:50:26;9.63;;;7.10;;
3767;SDS011;1899;49.966;7.106;2023-08-20T00:52:52;10.93;;;7.87;;
3767;SDS011;1899;49.966;7.106;2023-08-20T00:55:17;8.80;;;7.23;;
3767;SDS011;1899;49.966;7.106;2023-08-20T00:57:42;7.67;;;6.67;;
3767;SDS011;1899;49.966;7.106;2023-08-20T01:00:08;9.87;;;7.37;;
3767;SDS011;1899;49.966;7.106;2023-08-20T01:02:35;8.17;;;6.93;;
3767;SDS011;1899;49.966;7.106;2023-08-20T01:05:01;6.77;;;6.07;;
3767;SDS011;1899;49.966;7.106;2023-08-20T01:07:30;6.83;;;6.13;;
3767;SDS011;1899;49.966;7.106;2023-08-20T01:09:57;7.17;;;6.47;;
3767;SDS011;1899;49.966;7.106;2023-08-20T01:12:25;11.77;;;7.20;;
3767;SDS011;1899;49.966;7.106;2023-08-20T01:14:51;10.47;;;6.40;;
3767;SDS011;1899;49.966;7.106;2023-08-20T01:17:16;8.87;;;6.80;;
3767;SDS011;1899;49.966;7.106;2023-08-20T01:19:41;8.13;;;7.17;;
3767;SDS011;1899;49.966;7.106;2023-08-20T01:24:46;10.37;;;7.33;;
3767;SDS011;1899;49.966;7.106;2023-08-20T01:27:43;8.63;;;7.07;;
3767;SDS011;1899;49.966;7.106;2023-08-20T01:30:07;7.00;;;6.30;;
3767;SDS011;1899;49.966;7.106;2023-08-20T01:32:33;7.60;;;6.80;;
3767;SDS011;1899;49.966;7.106;2023-08-20T01:34:58;9.70;;;6.50;;
3767;SDS011;1899;49.966;7.106;2023-08-20T01:37:24;8.80;;;5.90;;
3767;SDS011;1899;49.966;7.106;2023-08-20T01:39:49;8.40;;;7.23;;
3767;SDS011;1899;49.966;7.106;2023-08-20T01:42:14;7.20;;;6.43;;
3767;SDS011;1899;49.966;7.106;2023-08-20T01:44:40;8.70;;;6.60;;
3767;SDS011;1899;49.966;7.106;2023-08-20T01:47:05;8.10;;;6.43;;
3767;SDS011;1899;49.966;7.106;2023-08-20T01:49:30;7.03;;;6.27;;
3767;SDS011;1899;49.966;7.106;2023-08-20T01:51:55;8.20;;;6.60;;
3767;SDS011;1899;49.966;7.106;2023-08-20T01:54:21;9.77;;;6.50;;
3767;SDS011;1899;49.966;7.106;2023-08-20T01:56:46;7.70;;;5.67;;
3767;SDS011;1899;49.966;7.106;2023-08-20T01:59:11;7.40;;;5.90;;
3767;SDS011;1899;49.966;7.106;2023-08-20T02:01:37;11.73;;;7.27;;
3767;SDS011;1899;49.966;7.106;2023-08-20T02:04:03;8.30;;;7.50;;
3767;SDS011;1899;49.966;7.106;2023-08-20T02:06:28;8.13;;;6.80;;
3767;SDS011;1899;49.966;7.106;2023-08-20T02:08:53;8.67;;;5.93;;
3767;SDS011;1899;49.966;7.106;2023-08-20T02:11:18;9.17;;;7.80;;
3767;SDS011;1899;49.966;7.106;2023-08-20T02:13:43;6.60;;;6.00;;
3767;SDS011;1899;49.966;7.106;2023-08-20T02:16:09;7.60;;;6.80;;
3767;SDS011;1899;49.966;7.106;2023-08-20T02:18:34;8.40;;;7.00;;
3767;SDS011;1899;49.966;7.106;2023-08-20T02:20:59;7.43;;;6.50;;
3767;SDS011;1899;49.966;7.106;2023-08-20T02:23:25;7.73;;;6.20;;
3767;SDS011;1899;49.966;7.106;2023-08-20T02:25:50;7.00;;;6.40;;
3767;SDS011;1899;49.966;7.106;2023-08-20T02:28:15;7.53;;;6.33;;
3767;SDS011;1899;49.966;7.106;2023-08-20T02:30:44;7.00;;;6.07;;
3767;SDS011;1899;49.966;7.106;2023-08-20T02:33:09;7.53;;;6.60;;
3767;SDS011;1899;49.966;7.106;2023-08-20T02:35:35;7.77;;;6.57;;
3767;SDS011;1899;49.966;7.106;2023-08-20T02:38:00;6.63;;;5.93;;
3767;SDS011;1899;49.966;7.106;2023-08-20T02:40:26;9.97;;;6.17;;
3767;SDS011;1899;49.966;7.106;2023-08-20T02:42:51;7.83;;;6.40;;
3767;SDS011;1899;49.966;7.106;2023-08-20T02:45:16;7.77;;;6.20;;
3767;SDS011;1899;49.966;7.106;2023-08-20T02:47:42;13.63;;;6.63;;
3767;SDS011;1899;49.966;7.106;2023-08-20T02:50:07;8.27;;;6.50;;
3767;SDS011;1899;49.966;7.106;2023-08-20T02:52:32;8.83;;;5.87;;
3767;SDS011;1899;49.966;7.106;2023-08-20T02:54:58;6.47;;;5.87;;
3767;SDS011;1899;49.966;7.106;2023-08-20T02:57:23;10.00;;;8.20;;
3767;SDS011;1899;49.966;7.106;2023-08-20T02:59:48;9.00;;;6.03;;
3767;SDS011;1899;49.966;7.106;2023-08-20T03:02:13;10.17;;;7.50;;
3767;SDS011;1899;49.966;7.106;2023-08-20T03:04:39;8.30;;;6.47;;
3767;SDS011;1899;49.966;7.106;2023-08-20T03:07:04;11.10;;;6.60;;
3767;SDS011;1899;49.966;7.106;2023-08-20T03:09:29;9.17;;;6.47;;
3767;SDS011;1899;49.966;7.106;2023-08-20T03:11:54;8.50;;;7.20;;
3767;SDS011;1899;49.966;7.106;2023-08-20T03:14:20;8.50;;;6.47;;
3767;SDS011;1899;49.966;7.106;2023-08-20T03:16:45;7.37;;;6.67;;
3767;SDS011;1899;49.966;7.106;2023-08-20T03:19:10;9.20;;;6.20;;
3767;SDS011;1899;49.966;7.106;2023-08-20T03:21:35;8.30;;;6.57;;
3767;SDS011;1899;49.966;7.106;2023-08-20T03:24:01;7.33;;;5.80;;
3767;SDS011;1899;49.966;7.106;2023-08-20T03:26:26;12.40;;;7.80;;
3767;SDS011;1899;49.966;7.106;2023-08-20T03:28:52;7.10;;;6.40;;
3767;SDS011;1899;49.966;7.106;2023-08-20T03:31:17;6.73;;;5.97;;
3767;SDS011;1899;49.966;7.106;2023-08-20T03:33:43;5.90;;;5.30;;
3767;SDS011;1899;49.966;7.106;2023-08-20T03:36:08;5.97;;;5.37;;
3767;SDS011;1899;49.966;7.106;2023-08-20T03:38:33;8.47;;;6.00;;
3767;SDS011;1899;49.966;7.106;2023-08-20T03:40:59;9.73;;;6.50;;
3767;SDS011;1899;49.966;7.106;2023-08-20T03:43:24;11.10;;;7.27;;
3767;SDS011;1899;49.966;7.106;2023-08-20T03:45:50;7.03;;;5.60;;
3767;SDS011;1899;49.966;7.106;2023-08-20T03:48:16;9.00;;;5.43;;
3767;SDS011;1899;49.966;7.106;2023-08-20T03:50:41;9.73;;;6.20;;
3767;SDS011;1899;49.966;7.106;2023-08-20T03:53:06;7.67;;;5.60;;
3767;SDS011;1899;49.966;7.106;2023-08-20T03:55:32;9.73;;;5.60;;
3767;SDS011;1899;49.966;7.106;2023-08-20T03:57:57;7.57;;;6.80;;
3767;SDS011;1899;49.966;7.106;2023-08-20T04:00:22;7.00;;;5.23;;
3767;SDS011;1899;49.966;7.106;2023-08-20T04:02:47;10.10;;;6.03;;
3767;SDS011;1899;49.966;7.106;2023-08-20T04:05:13;7.83;;;6.30;;
3767;SDS011;1899;49.966;7.106;2023-08-20T04:07:38;6.90;;;6.03;;
3767;SDS011;1899;49.966;7.106;2023-08-20T04:10:03;9.83;;;5.97;;
3767;SDS011;1899;49.966;7.106;2023-08-20T04:12:29;5.97;;;5.37;;
3767;SDS011;1899;49.966;7.106;2023-08-20T04:14:54;9.67;;;5.40;;
3767;SDS011;1899;49.966;7.106;2023-08-20T04:17:19;7.20;;;5.67;;
3767;SDS011;1899;49.966;7.106;2023-08-20T04:19:44;7.57;;;6.77;;
3767;SDS011;1899;49.966;7.106;2023-08-20T04:22:11;6.00;;;5.50;;
3767;SDS011;1899;49.966;7.106;2023-08-20T04:24:36;7.57;;;6.60;;
3767;SDS011;1899;49.966;7.106;2023-08-20T04:27:01;8.33;;;6.57;;
3767;SDS011;1899;49.966;7.106;2023-08-20T04:29:26;10.47;;;6.60;;
3767;SDS011;1899;49.966;7.106;2023-08-20T04:31:52;9.70;;;6.83;;
3767;SDS011;1899;49.966;7.106;2023-08-20T04:34:17;6.63;;;6.03;;
3767;SDS011;1899;49.966;7.106;2023-08-20T04:36:43;6.50;;;5.90;;
3767;SDS011;1899;49.966;7.106;2023-08-20T04:39:08;10.43;;;6.97;;
3767;SDS011;1899;49.966;7.106;2023-08-20T04:41:33;9.97;;;6.43;;
3767;SDS011;1899;49.966;7.106;2023-08-20T04:43:58;10.63;;;6.70;;
3767;SDS011;1899;49.966;7.106;2023-08-20T04:46:24;7.50;;;6.27;;
3767;SDS011;1899;49.966;7.106;2023-08-20T04:48:49;8.27;;;6.40;;
3767;SDS011;1899;49.966;7.106;2023-08-20T04:51:14;11.10;;;6.23;;
3767;SDS011;1899;49.966;7.106;2023-08-20T04:53:40;7.50;;;6.70;;
3767;SDS011;1899;49.966;7.106;2023-08-20T04:56:05;7.20;;;6.50;;
3767;SDS011;1899;49.966;7.106;2023-08-20T04:58:30;7.00;;;6.17;;
3767;SDS011;1899;49.966;7.106;2023-08-20T05:00:55;6.40;;;4.77;;
3767;SDS011;1899;49.966;7.106;2023-08-20T05:03:21;6.73;;;5.70;;
3767;SDS011;1899;49.966;7.106;2023-08-20T05:05:49;6.93;;;6.23;;
3767;SDS011;1899;49.966;7.106;2023-08-20T05:08:15;7.73;;;5.17;;
3767;SDS011;1899;49.966;7.106;2023-08-20T05:10:40;8.53;;;5.33;;
3767;SDS011;1899;49.966;7.106;2023-08-20T05:13:06;10.73;;;6.13;;
3767;SDS011;1899;49.966;7.106;2023-08-20T05:15:31;5.80;;;5.30;;
3767;SDS011;1899;49.966;7.106;2023-08-20T05:17:56;6.23;;;5.60;;
3767;SDS011;1899;49.966;7.106;2023-08-20T05:20:21;6.83;;;6.00;;
3767;SDS011;1899;49.966;7.106;2023-08-20T05:22:47;7.00;;;6.30;;
3767;SDS011;1899;49.966;7.106;2023-08-20T05:25:12;6.63;;;5.80;;
3767;SDS011;1899;49.966;7.106;2023-08-20T05:27:37;5.93;;;5.43;;
3767;SDS011;1899;49.966;7.106;2023-08-20T05:30:02;7.27;;;4.97;;
3767;SDS011;1899;49.966;7.106;2023-08-20T05:32:28;9.40;;;5.10;;
3767;SDS011;1899;49.966;7.106;2023-08-20T05:34:53;16.30;;;6.03;;
3767;SDS011;1899;49.966;7.106;2023-08-20T05:37:19;5.97;;;5.37;;
3767;SDS011;1899;49.966;7.106;2023-08-20T05:39:44;9.20;;;5.77;;
3767;SDS011;1899;49.966;7.106;2023-08-20T05:42:09;8.13;;;4.87;;
3767;SDS011;1899;49.966;7.106;2023-08-20T05:44:35;7.20;;;6.00;;
3767;SDS011;1899;49.966;7.106;2023-08-20T05:47:00;8.07;;;6.93;;
3767;SDS011;1899;49.966;7.106;2023-08-20T05:49:26;6.00;;;5.40;;
3767;SDS011;1899;49.966;7.106;2023-08-20T05:51:51;6.00;;;5.40;;
3767;SDS011;1899;49.966;7.106;2023-08-20T05:54:16;8.57;;;5.20;;
3767;SDS011;1899;49.966;7.106;2023-08-20T05:56:42;6.83;;;5.60;;
3767;SDS011;1899;49.966;7.106;2023-08-20T05:59:08;8.73;;;5.47;;
3767;SDS011;1899;49.966;7.106;2023-08-20T06:01:33;7.70;;;5.93;;
3767;SDS011;1899;49.966;7.106;2023-08-20T06:03:58;7.87;;;5.70;;
3767;SDS011;1899;49.966;7.106;2023-08-20T06:06:24;8.00;;;5.90;;
3767;SDS011;1899;49.966;7.106;2023-08-20T06:08:50;8.73;;;5.30;;
3767;SDS011;1899;49.966;7.106;2023-08-20T06:11:15;5.80;;;5.30;;
3767;SDS011;1899;49.966;7.106;2023-08-20T06:13:40;6.87;;;5.10;;
3767;SDS011;1899;49.966;7.106;2023-08-20T06:16:06;6.00;;;4.80;;
3767;SDS011;1899;49.966;7.106;2023-08-20T06:18:32;9.00;;;5.67;;
3767;SDS011;1899;49.966;7.106;2023-08-20T06:20:57;7.87;;;6.30;;
3767;SDS011;1899;49.966;7.106;2023-08-20T06:23:22;9.10;;;6.50;;
3767;SDS011;1899;49.966;7.106;2023-08-20T06:25:49;7.43;;;5.80;;
3767;SDS011;1899;49.966;7.106;2023-08-20T06:28:15;8.13;;;6.80;;
3767;SDS011;1899;49.966;7.106;2023-08-20T06:30:40;6.53;;;5.80;;
3767;SDS011;1899;49.966;7.106;2023-08-20T06:33:05;10.97;;;6.47;;
3767;SDS011;1899;49.966;7.106;2023-08-20T06:35:30;8.83;;;7.63;;
3767;SDS011;1899;49.966;7.106;2023-08-20T06:37:56;14.40;;;6.87;;
3767;SDS011;1899;49.966;7.106;2023-08-20T06:40:21;6.83;;;6.20;;
3767;SDS011;1899;49.966;7.106;2023-08-20T06:42:46;10.70;;;6.90;;
3767;SDS011;1899;49.966;7.106;2023-08-20T06:45:11;7.73;;;6.93;;
3767;SDS011;1899;49.966;7.106;2023-08-20T06:47:37;8.77;;;7.03;;
3767;SDS011;1899;49.966;7.106;2023-08-20T06:50:02;9.17;;;6.87;;
3767;SDS011;1899;49.966;7.106;2023-08-20T06:52:27;8.17;;;6.77;;
3767;SDS011;1899;49.966;7.106;2023-08-20T06:54:53;8.60;;;7.13;;
3767;SDS011;1899;49.966;7.106;2023-08-20T06:57:18;8.10;;;6.53;;
3767;SDS011;1899;49.966;7.106;2023-08-20T06:59:43;7.30;;;6.00;;
3767;SDS011;1899;49.966;7.106;2023-08-20T07:02:09;6.43;;;5.60;;
3767;SDS011;1899;49.966;7.106;2023-08-20T07:04:35;7.07;;;4.93;;
3767;SDS011;1899;49.966;7.106;2023-08-20T07:07:00;6.87;;;6.17;;
3767;SDS011;1899;49.966;7.106;2023-08-20T07:09:25;6.40;;;5.80;;
3767;SDS011;1899;49.966;7.106;2023-08-20T07:11:50;6.80;;;5.30;;
3767;SDS011;1899;49.966;7.106;2023-08-20T07:14:16;6.57;;;5.83;;
3767;SDS011;1899;49.966;7.106;2023-08-20T07:16:42;6.30;;;5.80;;
3767;SDS011;1899;49.966;7.106;2023-08-20T07:19:07;6.47;;;5.70;;
3767;SDS011;1899;49.966;7.106;2023-08-20T07:21:32;7.80;;;6.13;;
3767;SDS011;1899;49.966;7.106;2023-08-20T07:23:58;6.73;;;6.03;;
3767;SDS011;1899;49.966;7.106;2023-08-20T07:26:23;6.10;;;5.50;;
3767;SDS011;1899;49.966;7.106;2023-08-20T07:28:48;10.40;;;6.40;;
3767;SDS011;1899;49.966;7.106;2023-08-20T07:31:23;7.53;;;5.70;;
3767;SDS011;1899;49.966;7.106;2023-08-20T07:33:49;8.07;;;6.57;;
3767;SDS011;1899;49.966;7.106;2023-08-20T07:36:15;6.90;;;6.20;;
3767;SDS011;1899;49.966;7.106;2023-08-20T07:38:40;8.70;;;6.90;;
3767;SDS011;1899;49.966;7.106;2023-08-20T07:41:07;6.93;;;6.33;;
3767;SDS011;1899;49.966;7.106;2023-08-20T07:43:32;8.73;;;6.00;;
3767;SDS011;1899;49.966;7.106;2023-08-20T07:45:58;7.30;;;6.07;;
3767;SDS011;1899;49.966;7.106;2023-08-20T07:48:23;6.73;;;6.13;;
3767;SDS011;1899;49.966;7.106;2023-08-20T07:50:48;7.43;;;6.50;;
3767;SDS011;1899;49.966;7.106;2023-08-20T07:53:13;6.57;;;5.97;;
3767;SDS011;1899;49.966;7.106;2023-08-20T07:55:39;6.80;;;5.43;;
3767;SDS011;1899;49.966;7.106;2023-08-20T07:58:04;6.83;;;6.27;;
3767;SDS011;1899;49.966;7.106;2023-08-20T08:00:29;6.67;;;6.07;;
3767;SDS011;1899;49.966;7.106;2023-08-20T08:02:54;7.33;;;6.33;;
3767;SDS011;1899;49.966;7.106;2023-08-20T08:05:20;7.43;;;6.40;;
3767;SDS011;1899;49.966;7.106;2023-08-20T08:07:45;8.80;;;6.03;;
3767;SDS011;1899;49.966;7.106;2023-08-20T08:10:10;7.30;;;6.70;;
3767;SDS011;1899;49.966;7.106;2023-08-20T08:12:36;7.13;;;5.77;;
3767;SDS011;1899;49.966;7.106;2023-08-20T08:15:01;6.50;;;6.00;;
3767;SDS011;1899;49.966;7.106;2023-08-20T08:17:27;7.30;;;6.70;;
3767;SDS011;1899;49.966;7.106;2023-08-20T08:19:52;7.10;;;6.50;;
3767;SDS011;1899;49.966;7.106;2023-08-20T08:22:19;6.93;;;6.23;;
3767;SDS011;1899;49.966;7.106;2023-08-20T08:24:45;7.93;;;7.17;;
3767;SDS011;1899;49.966;7.106;2023-08-20T08:27:10;8.50;;;7.63;;
3767;SDS011;1899;49.966;7.106;2023-08-20T08:29:35;6.90;;;6.20;;
3767;SDS011;1899;49.966;7.106;2023-08-20T08:32:01;7.77;;;7.03;;
3767;SDS011;1899;49.966;7.106;2023-08-20T08:34:26;6.30;;;5.80;;
3767;SDS011;1899;49.966;7.106;2023-08-20T08:36:51;7.80;;;7.00;;
3767;SDS011;1899;49.966;7.106;2023-08-20T08:39:16;8.23;;;7.43;;
3767;SDS011;1899;49.966;7.106;2023-08-20T08:41:42;10.47;;;7.30;;
3767;SDS011;1899;49.966;7.106;2023-08-20T08:44:08;8.60;;;7.57;;
3767;SDS011;1899;49.966;7.106;2023-08-20T08:46:34;12.13;;;8.63;;
3767;SDS011;1899;49.966;7.106;2023-08-20T08:49:00;8.60;;;7.37;;
3767;SDS011;1899;49.966;7.106;2023-08-20T08:51:25;10.33;;;7.97;;
3767;SDS011;1899;49.966;7.106;2023-08-20T08:53:51;8.47;;;7.13;;
3767;SDS011;1899;49.966;7.106;2023-08-20T08:56:17;8.93;;;7.27;;
3767;SDS011;1899;49.966;7.106;2023-08-20T08:58:42;8.87;;;7.87;;
3767;SDS011;1899;49.966;7.106;2023-08-20T09:01:07;7.73;;;6.47;;
3767;SDS011;1899;49.966;7.106;2023-08-20T09:03:33;8.30;;;6.10;;
3767;SDS011;1899;49.966;7.106;2023-08-20T09:05:58;6.97;;;6.27;;
3767;SDS011;1899;49.966;7.106;2023-08-20T09:08:29;7.50;;;6.90;;
3767;SDS011;1899;49.966;7.106;2023-08-20T09:10:55;6.63;;;6.03;;
3767;SDS011;1899;49.966;7.106;2023-08-20T09:13:24;7.70;;;6.60;;
3767;SDS011;1899;49.966;7.106;2023-08-20T09:15:53;8.10;;;7.30;;
3767;SDS011;1899;49.966;7.106;2023-08-20T09:18:18;7.73;;;6.00;;
3767;SDS011;1899;49.966;7.106;2023-08-20T09:20:44;6.90;;;6.30;;
3767;SDS011;1899;49.966;7.106;2023-08-20T09:23:12;7.60;;;6.90;;
3767;SDS011;1899;49.966;7.106;2023-08-20T09:25:38;12.03;;;7.47;;
3767;SDS011;1899;49.966;7.106;2023-08-20T09:28:03;7.57;;;6.80;;
3767;SDS011;1899;49.966;7.106;2023-08-20T09:30:29;10.40;;;6.60;;
3767;SDS011;1899;49.966;7.106;2023-08-20T09:35:29;8.90;;;7.60;;
3767;SDS011;1899;49.966;7.106;2023-08-20T09:38:01;7.33;;;6.63;;
3767;SDS011;1899;49.966;7.106;2023-08-20T09:40:26;8.03;;;7.20;;
3767;SDS011;1899;49.966;7.106;2023-08-20T09:42:52;7.20;;;6.57;;
3767;SDS011;1899;49.966;7.106;2023-08-20T09:45:19;7.90;;;7.00;;
3767;SDS011;1899;49.966;7.106;2023-08-20T09:47:45;8.23;;;7.50;;
3767;SDS011;1899;49.966;7.106;2023-08-20T09:50:13;9.30;;;7.00;;
3767;SDS011;1899;49.966;7.106;2023-08-20T09:52:39;7.00;;;5.90;;
3767;SDS011;1899;49.966;7.106;2023-08-20T09:55:08;7.77;;;7.10;;
3767;SDS011;1899;49.966;7.106;2023-08-20T09:57:37;7.40;;;5.90;;
3767;SDS011;1899;49.966;7.106;2023-08-20T10:00:03;7.03;;;6.27;;
3767;SDS011;1899;49.966;7.106;2023-08-20T10:02:30;5.80;;;5.20;;
3767;SDS011;1899;49.966;7.106;2023-08-20T10:04:56;6.03;;;5.53;;
3767;SDS011;1899;49.966;7.106;2023-08-20T10:07:22;5.63;;;5.13;;
3767;SDS011;1899;49.966;7.106;2023-08-20T10:09:49;5.53;;;5.03;;
3767;SDS011;1899;49.966;7.106;2023-08-20T10:12:16;5.10;;;4.70;;
3767;SDS011;1899;49.966;7.106;2023-08-20T10:14:42;5.77;;;5.20;;
3767;SDS011;1899;49.966;7.106;2023-08-20T10:17:11;6.60;;;4.70;;
3767;SDS011;1899;49.966;7.106;2023-08-20T10:19:36;4.80;;;3.80;;
3767;SDS011;1899;49.966;7.106;2023-08-20T10:22:03;3.67;;;3.37;;
3767;SDS011;1899;49.966;7.106;2023-08-20T10:24:28;4.73;;;4.33;;
3767;SDS011;1899;49.966;7.106;2023-08-20T10:27:09;4.00;;;3.70;;
3767;SDS011;1899;49.966;7.106;2023-08-20T10:32:03;3.83;;;3.47;;
3767;SDS011;1899;49.966;7.106;2023-08-20T10:34:32;4.10;;;3.80;;
3767;SDS011;1899;49.966;7.106;2023-08-20T10:37:00;4.07;;;3.67;;
3767;SDS011;1899;49.966;7.106;2023-08-20T10:39:26;4.60;;;4.30;;
3767;SDS011;1899;49.966;7.106;2023-08-20T10:42:07;4.33;;;4.00;;
3767;SDS011;1899;49.966;7.106;2023-08-20T10:50:02;4.00;;;3.70;;
3767;SDS011;1899;49.966;7.106;2023-08-20T10:52:27;4.30;;;3.90;;
3767;SDS011;1899;49.966;7.106;2023-08-20T10:54:52;4.47;;;3.80;;
3767;SDS011;1899;49.966;7.106;2023-08-20T10:57:18;3.30;;;3.10;;
3767;SDS011;1899;49.966;7.106;2023-08-20T10:59:55;4.60;;;4.30;;
3767;SDS011;1899;49.966;7.106;2023-08-20T11:02:21;6.47;;;3.80;;
3767;SDS011;1899;49.966;7.106;2023-08-20T11:04:46;4.03;;;3.73;;
3767;SDS011;1899;49.966;7.106;2023-08-20T11:07:11;6.80;;;3.87;;
3767;SDS011;1899;49.966;7.106;2023-08-20T11:09:42;3.83;;;3.53;;
3767;SDS011;1899;49.966;7.106;2023-08-20T11:12:07;4.37;;;3.97;;
3767;SDS011;1899;49.966;7.106;2023-08-20T11:14:32;4.50;;;4.20;;
3767;SDS011;1899;49.966;7.106;2023-08-20T11:17:00;3.70;;;3.40;;
3767;SDS011;1899;49.966;7.106;2023-08-20T11:19:25;4.53;;;3.60;;
3767;SDS011;1899;49.966;7.106;2023-08-20T11:21:50;3.70;;;3.40;;
3767;SDS011;1899;49.966;7.106;2023-08-20T11:24:16;3.03;;;2.73;;
3767;SDS011;1899;49.966;7.106;2023-08-20T11:26:42;3.70;;;3.35;;
3767;SDS011;1899;49.966;7.106;2023-08-20T11:29:09;3.10;;;2.90;;
3767;SDS011;1899;49.966;7.106;2023-08-20T11:31:37;3.73;;;3.43;;
3767;SDS011;1899;49.966;7.106;2023-08-20T11:34:03;3.87;;;3.47;;
3767;SDS011;1899;49.966;7.106;2023-08-20T11:36:28;2.90;;;2.70;;
3767;SDS011;1899;49.966;7.106;2023-08-20T11:38:54;3.50;;;3.20;;
3767;SDS011;1899;49.966;7.106;2023-08-20T11:41:23;3.42;;;2.92;;
3767;SDS011;1899;49.966;7.106;2023-08-20T11:43:48;5.07;;;3.08;;
3767;SDS011;1899;49.966;7.106;2023-08-20T11:46:14;3.40;;;3.00;;
3767;SDS011;1899;49.966;7.106;2023-08-20T11:51:25;4.38;;;3.58;;
3767;SDS011;1899;49.966;7.106;2023-08-20T11:53:51;3.60;;;3.30;;
3767;SDS011;1899;49.966;7.106;2023-08-20T11:56:16;4.17;;;3.50;;
3767;SDS011;1899;49.966;7.106;2023-08-20T11:58:41;3.90;;;2.80;;
3767;SDS011;1899;49.966;7.106;2023-08-20T12:01:09;3.17;;;2.87;;
3767;SDS011;1899;49.966;7.106;2023-08-20T12:03:37;2.13;;;1.93;;
3767;SDS011;1899;49.966;7.106;2023-08-20T12:06:18;4.77;;;2.03;;
3767;SDS011;1899;49.966;7.106;2023-08-20T12:08:43;1.97;;;1.53;;
3767;SDS011;1899;49.966;7.106;2023-08-20T12:11:09;2.30;;;1.63;;
3767;SDS011;1899;49.966;7.106;2023-08-20T12:13:34;3.30;;;1.83;;
3767;SDS011;1899;49.966;7.106;2023-08-20T12:16:00;2.70;;;1.63;;
3767;SDS011;1899;49.966;7.106;2023-08-20T12:18:25;1.33;;;1.23;;
3767;SDS011;1899;49.966;7.106;2023-08-20T12:20:50;2.07;;;1.40;;
3767;SDS011;1899;49.966;7.106;2023-08-20T12:23:15;2.70;;;1.47;;
3767;SDS011;1899;49.966;7.106;2023-08-20T12:25:42;1.97;;;1.43;;
3767;SDS011;1899;49.966;7.106;2023-08-20T12:28:08;1.83;;;1.57;;
3767;SDS011;1899;49.966;7.106;2023-08-20T12:30:33;1.83;;;1.70;;
3767;SDS011;1899;49.966;7.106;2023-08-20T12:33:01;1.60;;;1.50;;
3767;SDS011;1899;49.966;7.106;2023-08-20T12:35:27;1.93;;;1.70;;
3767;SDS011;1899;49.966;7.106;2023-08-20T12:37:52;2.40;;;2.20;;
3767;SDS011;1899;49.966;7.106;2023-08-20T12:40:18;2.73;;;1.77;;
3767;SDS011;1899;49.966;7.106;2023-08-20T12:42:43;2.57;;;2.10;;
3767;SDS011;1899;49.966;7.106;2023-08-20T12:45:08;2.90;;;1.70;;
3767;SDS011;1899;49.966;7.106;2023-08-20T12:47:35;2.50;;;2.30;;
3767;SDS011;1899;49.966;7.106;2023-08-20T12:50:00;3.90;;;2.13;;
3767;SDS011;1899;49.966;7.106;2023-08-20T12:52:25;2.00;;;1.83;;
3767;SDS011;1899;49.966;7.106;2023-08-20T12:54:51;4.57;;;2.23;;
3767;SDS011;1899;49.966;7.106;2023-08-20T12:57:16;2.63;;;1.90;;
3767;SDS011;1899;49.966;7.106;2023-08-20T12:59:41;1.93;;;1.83;;
3767;SDS011;1899;49.966;7.106;2023-08-20T13:02:07;1.80;;;1.67;;
3767;SDS011;1899;49.966;7.106;2023-08-20T13:04:33;3.20;;;1.97;;
3767;SDS011;1899;49.966;7.106;2023-08-20T13:06:58;2.50;;;2.17;;
3767;SDS011;1899;49.966;7.106;2023-08-20T13:09:24;6.13;;;2.17;;
3767;SDS011;1899;49.966;7.106;2023-08-20T13:11:49;2.57;;;2.33;;
3767;SDS011;1899;49.966;7.106;2023-08-20T13:14:15;3.67;;;2.20;;
3767;SDS011;1899;49.966;7.106;2023-08-20T13:16:41;2.73;;;1.90;;
3767;SDS011;1899;49.966;7.106;2023-08-20T13:19:07;2.50;;;2.10;;
3767;SDS011;1899;49.966;7.106;2023-08-20T13:21:32;2.60;;;2.30;;
3767;SDS011;1899;49.966;7.106;2023-08-20T13:23:58;2.03;;;1.80;;
3767;SDS011;1899;49.966;7.106;2023-08-20T13:26:23;5.57;;;2.67;;
3767;SDS011;1899;49.966;7.106;2023-08-20T13:28:49;4.30;;;2.37;;
3767;SDS011;1899;49.966;7.106;2023-08-20T13:31:15;2.90;;;2.27;;
3767;SDS011;1899;49.966;7.106;2023-08-20T13:33:40;2.33;;;2.13;;
3767;SDS011;1899;49.966;7.106;2023-08-20T13:36:05;2.87;;;2.10;;
3767;SDS011;1899;49.966;7.106;2023-08-20T13:38:32;2.53;;;2.33;;
3767;SDS011;1899;49.966;7.106;2023-08-20T13:40:57;2.67;;;2.47;;
3767;SDS011;1899;49.966;7.106;2023-08-20T13:43:23;2.57;;;1.97;;
3767;SDS011;1899;49.966;7.106;2023-08-20T13:45:48;2.60;;;2.37;;
3767;SDS011;1899;49.966;7.106;2023-08-20T13:48:13;3.20;;;2.30;;
3767;SDS011;1899;49.966;7.106;2023-08-20T13:50:39;2.90;;;2.20;;
3767;SDS011;1899;49.966;7.106;2023-08-20T13:53:04;9.43;;;2.00;;
3767;SDS011;1899;49.966;7.106;2023-08-20T13:55:29;3.10;;;2.07;;
3767;SDS011;1899;49.966;7.106;2023-08-20T13:57:56;2.70;;;2.10;;
3767;SDS011;1899;49.966;7.106;2023-08-20T14:00:21;2.20;;;2.00;;
3767;SDS011;1899;49.966;7.106;2023-08-20T14:02:46;4.80;;;2.53;;
3767;SDS011;1899;49.966;7.106;2023-08-20T14:05:12;2.73;;;1.90;;
3767;SDS011;1899;49.966;7.106;2023-08-20T14:07:37;2.27;;;2.07;;
3767;SDS011;1899;49.966;7.106;2023-08-20T14:10:03;4.93;;;2.60;;
3767;SDS011;1899;49.966;7.106;2023-08-20T14:12:31;2.40;;;2.20;;
3767;SDS011;1899;49.966;7.106;2023-08-20T14:14:57;3.17;;;1.90;;
3767;SDS011;1899;49.966;7.106;2023-08-20T14:17:22;4.30;;;2.43;;
3767;SDS011;1899;49.966;7.106;2023-08-20T14:19:47;3.33;;;2.20;;
3767;SDS011;1899;49.966;7.106;2023-08-20T14:22:12;3.23;;;2.13;;
3767;SDS011;1899;49.966;7.106;2023-08-20T14:24:38;2.20;;;2.00;;
3767;SDS011;1899;49.966;7.106;2023-08-20T14:27:03;2.70;;;2.20;;
3767;SDS011;1899;49.966;7.106;2023-08-20T14:29:28;2.40;;;2.20;;
3767;SDS011;1899;49.966;7.106;2023-08-20T14:31:53;2.83;;;2.63;;
3767;SDS011;1899;49.966;7.106;2023-08-20T14:34:19;2.07;;;1.87;;
3767;SDS011;1899;49.966;7.106;2023-08-20T14:36:44;2.80;;;2.23;;
3767;SDS011;1899;49.966;7.106;2023-08-20T14:39:09;2.70;;;2.47;;
3767;SDS011;1899;49.966;7.106;2023-08-20T14:41:34;4.73;;;2.43;;
3767;SDS011;1899;49.966;7.106;2023-08-20T14:44:00;2.57;;;2.37;;
3767;SDS011;1899;49.966;7.106;2023-08-20T14:46:25;3.40;;;2.67;;
3767;SDS011;1899;49.966;7.106;2023-08-20T14:48:51;2.53;;;2.33;;
3767;SDS011;1899;49.966;7.106;2023-08-20T14:51:16;4.30;;;3.07;;
3767;SDS011;1899;49.966;7.106;2023-08-20T14:53:42;3.17;;;2.60;;
3767;SDS011;1899;49.966;7.106;2023-08-20T14:56:07;3.30;;;2.30;;
3767;SDS011;1899;49.966;7.106;2023-08-20T14:58:32;3.17;;;2.57;;
3767;SDS011;1899;49.966;7.106;2023-08-20T15:00:58;4.80;;;2.50;;
3767;SDS011;1899;49.966;7.106;2023-08-20T15:03:23;2.80;;;2.60;;
3767;SDS011;1899;49.966;7.106;2023-08-20T15:05:48;5.20;;;2.83;;
3767;SDS011;1899;49.966;7.106;2023-08-20T15:08:14;4.53;;;2.60;;
3767;SDS011;1899;49.966;7.106;2023-08-20T15:10:39;2.90;;;2.50;;
3767;SDS011;1899;49.966;7.106;2023-08-20T15:13:04;3.30;;;2.80;;
3767;SDS011;1899;49.966;7.106;2023-08-20T15:15:30;3.77;;;2.67;;
3767;SDS011;1899;49.966;7.106;2023-08-20T15:17:56;4.17;;;2.83;;
3767;SDS011;1899;49.966;7.106;2023-08-20T15:20:21;4.80;;;2.87;;
3767;SDS011;1899;49.966;7.106;2023-08-20T15:22:47;2.80;;;2.60;;